Time;durP1;ratioP1;P1;durP2;ratioP2;P2;SDS_P1;SDS_P2;PMS_P1;PMS_P2;Temp;Humidity;BMP_temperature;BMP_pressure;BME280_temperature;BME280_humidity;BME280_pressure;Samples;Min_cycle;Max_cycle;Signal;HPM_P1;HPM_P2
2022/06/23 00:00:56;;;;;;;;;;;18.10;99.90;;;;;;5091745;28;20356;-77
2022/06/23 00:03:22;;;;;;;;;;;18.10;99.90;;;;;;5092656;28;20025;-77
2022/06/23 00:05:54;;;;;;;;;;;18.00;99.90;;;;;;5091991;28;19994;-77
2022/06/23 00:08:19;;;;;;;;;;;18.00;99.90;;;;;;5092660;28;19947;-77
2022/06/23 00:10:50;;;;;;;;;;;18.00;99.90;;;;;;5091837;28;20374;-76
2022/06/23 00:13:23;;;;;;;;;;;18.10;99.90;;;;;;5092566;28;19914;-77
2022/06/23 00:15:50;;;;;;;;;;;18.10;99.90;;;;;;5091229;28;20007;-77
2022/06/23 00:18:18;;;;;;;;;;;18.10;99.90;;;;;;5092274;28;19960;-77
2022/06/23 00:20:52;;;;;;;;;;;18.00;99.90;;;;;;5091519;28;19919;-77
2022/06/23 00:23:21;;;;;;;;;;;18.00;99.90;;;;;;5092418;28;19920;-77
2022/06/23 00:25:52;;;;;;;;;;;18.00;99.90;;;;;;5090548;28;19908;-77
2022/06/23 00:28:29;;;;;;;;;;;18.00;99.90;;;;;;5093123;28;19915;-77
2022/06/23 00:31:02;;;;;;;;;;;17.90;99.90;;;;;;5094985;28;19963;-76
2022/06/23 00:33:30;;;;;;;;;;;17.90;99.90;;;;;;5095870;28;19954;-76
2022/06/23 00:35:56;;;;;;;;;;;17.90;99.90;;;;;;5094770;28;19915;-76
2022/06/23 00:38:30;;;;;;;;;;;17.80;99.90;;;;;;5095737;28;19924;-77
2022/06/23 00:40:56;;;;;;;;;;;17.80;99.90;;;;;;5094679;28;19962;-76
2022/06/23 00:43:22;;;;;;;;;;;17.80;99.90;;;;;;5095429;28;19958;-77
2022/06/23 00:45:55;;;;;;;;;;;17.80;99.90;;;;;;5094873;28;19960;-76
2022/06/23 00:48:28;;;;;;;;;;;17.80;99.90;;;;;;5095765;28;19912;-77
2022/06/23 00:51:13;;;;;;;;;;;17.90;99.90;;;;;;5094612;28;19912;-77
2022/06/23 00:53:55;;;;;;;;;;;18.00;99.90;;;;;;5094584;28;20346;-77
2022/06/23 00:56:39;;;;;;;;;;;18.00;99.90;;;;;;5095227;28;19913;-76
2022/06/23 00:59:23;;;;;;;;;;;18.00;99.90;;;;;;5095251;28;19912;-77
2022/06/23 01:01:51;;;;;;;;;;;18.10;99.90;;;;;;5094707;28;20015;-77
2022/06/23 01:04:17;;;;;;;;;;;18.10;99.90;;;;;;5094099;28;19912;-77
2022/06/23 01:06:48;;;;;;;;;;;18.10;99.90;;;;;;5094538;28;19908;-77
2022/06/23 01:09:17;;;;;;;;;;;18.20;99.90;;;;;;5095173;28;19958;-77
2022/06/23 01:11:45;;;;;;;;;;;18.20;99.90;;;;;;5094357;28;19948;-77
2022/06/23 01:14:20;;;;;;;;;;;18.20;99.90;;;;;;5095133;28;19912;-77
2022/06/23 01:16:48;;;;;;;;;;;18.20;99.90;;;;;;5094301;28;20366;-76
2022/06/23 01:19:19;;;;;;;;;;;18.20;99.90;;;;;;5094683;28;20346;-76
2022/06/23 01:21:47;;;;;;;;;;;18.30;99.90;;;;;;5094216;28;19912;-77
2022/06/23 01:24:23;;;;;;;;;;;18.30;99.90;;;;;;5094441;28;19918;-77
2022/06/23 01:26:55;;;;;;;;;;;18.30;99.90;;;;;;5094256;28;19990;-77
2022/06/23 01:29:24;;;;;;;;;;;18.30;99.90;;;;;;5094773;28;19964;-77
2022/06/23 01:31:55;;;;;;;;;;;18.20;99.90;;;;;;5094159;28;19908;-77
2022/06/23 01:34:25;;;;;;;;;;;18.20;99.90;;;;;;5093541;28;19912;-77
2022/06/23 01:36:56;;;;;;;;;;;18.20;99.90;;;;;;5093497;28;19924;-77
2022/06/23 01:39:21;;;;;;;;;;;18.30;99.90;;;;;;5094164;28;20330;-77
2022/06/23 01:41:51;;;;;;;;;;;18.30;99.90;;;;;;5093084;28;20014;-77
2022/06/23 01:44:26;;;;;;;;;;;18.20;99.90;;;;;;5094209;28;20424;-76
2022/06/23 01:46:54;;;;;;;;;;;18.20;99.90;;;;;;5093699;28;19961;-76
2022/06/23 01:49:20;;;;;;;;;;;18.20;99.90;;;;;;5094255;28;19915;-77
2022/06/23 01:51:47;;;;;;;;;;;18.10;99.90;;;;;;5093689;28;19908;-76
2022/06/23 01:54:22;;;;;;;;;;;18.10;99.90;;;;;;5094250;28;19908;-77
2022/06/23 01:56:52;;;;;;;;;;;18.10;99.90;;;;;;5093661;28;20356;-76
2022/06/23 01:59:20;;;;;;;;;;;18.10;99.90;;;;;;5094256;28;19925;-77
2022/06/23 02:01:52;;;;;;;;;;;18.10;99.90;;;;;;5093218;28;20060;-76
2022/06/23 02:04:36;;;;;;;;;;;18.10;99.90;;;;;;5093937;28;20291;-77
2022/06/23 02:07:22;;;;;;;;;;;18.10;99.90;;;;;;5093176;28;20265;-77
2022/06/23 02:09:52;;;;;;;;;;;18.00;99.90;;;;;;5092997;28;20053;-76
2022/06/23 02:12:21;;;;;;;;;;;18.00;99.90;;;;;;5097311;28;20395;-77
2022/06/23 02:14:49;;;;;;;;;;;18.00;99.90;;;;;;5113640;28;19908;-76
2022/06/23 02:17:18;;;;;;;;;;;18.00;99.90;;;;;;5114309;28;19908;-77
2022/06/23 02:19:48;;;;;;;;;;;18.00;99.90;;;;;;5113567;28;19908;-76
2022/06/23 02:22:15;;;;;;;;;;;17.90;99.90;;;;;;5113990;28;19911;-77
2022/06/23 02:24:46;;;;;;;;;;;17.90;99.90;;;;;;5113573;28;19912;-76
2022/06/23 02:27:18;;;;;;;;;;;17.90;99.90;;;;;;5112436;28;19908;-77
2022/06/23 02:29:53;;;;;;;;;;;17.90;99.90;;;;;;5112230;28;19908;-76
2022/06/23 02:32:19;;;;;;;;;;;17.80;99.90;;;;;;5114095;28;19994;-77
2022/06/23 02:34:51;;;;;;;;;;;17.90;99.90;;;;;;5113009;28;20003;-77
2022/06/23 02:37:36;;;;;;;;;;;17.90;99.90;;;;;;5113569;28;19920;-77
2022/06/23 02:40:02;;;;;;;;;;;17.80;99.90;;;;;;5112984;28;19919;-76
2022/06/23 02:42:34;;;;;;;;;;;17.80;99.90;;;;;;5113667;28;19919;-76
2022/06/23 02:45:03;;;;;;;;;;;17.80;99.90;;;;;;5111725;28;19912;-76
2022/06/23 02:47:38;;;;;;;;;;;17.80;99.90;;;;;;5113473;28;20387;-77
2022/06/23 02:50:06;;;;;;;;;;;17.80;99.90;;;;;;5113144;28;20375;-76
2022/06/23 02:52:50;;;;;;;;;;;17.80;99.90;;;;;;5113363;28;19908;-76
2022/06/23 02:55:35;;;;;;;;;;;17.70;99.90;;;;;;5113581;28;19907;-76
2022/06/23 02:58:06;;;;;;;;;;;17.70;99.90;;;;;;5112931;28;20006;-76
2022/06/23 03:00:44;;;;;;;;;;;17.70;99.90;;;;;;5113180;28;19954;-76
2022/06/23 03:03:10;;;;;;;;;;;17.70;99.90;;;;;;5113305;28;19912;-76
2022/06/23 03:05:38;;;;;;;;;;;17.60;99.90;;;;;;5113069;28;19907;-76
2022/06/23 03:08:17;;;;;;;;;;;17.70;99.90;;;;;;5112573;28;19942;-76
2022/06/23 03:10:49;;;;;;;;;;;17.60;99.90;;;;;;5113155;28;19915;-76
2022/06/23 03:13:18;;;;;;;;;;;17.60;99.90;;;;;;5113232;28;19950;-76
2022/06/23 03:16:04;;;;;;;;;;;17.60;99.90;;;;;;5113155;28;20262;-76
2022/06/23 03:18:36;;;;;;;;;;;17.60;99.90;;;;;;5081665;28;19912;-76
2022/06/23 03:21:07;;;;;;;;;;;17.60;99.90;;;;;;5071917;28;19912;-76
2022/06/23 03:23:51;;;;;;;;;;;17.60;99.90;;;;;;5105172;28;19916;-76
2022/06/23 03:26:35;;;;;;;;;;;17.50;99.90;;;;;;5072278;28;19908;-76
2022/06/23 03:29:16;;;;;;;;;;;17.50;99.90;;;;;;5071992;28;19951;-76
2022/06/23 03:32:01;;;;;;;;;;;17.40;99.90;;;;;;5072344;28;19909;-76
2022/06/23 03:34:32;;;;;;;;;;;17.40;99.90;;;;;;5072556;28;19954;-76
2022/06/23 03:37:03;;;;;;;;;;;17.30;99.90;;;;;;5071858;28;19927;-76
2022/06/23 03:42:31;;;;;;;;;;;17.20;99.90;;;;;;5078110;28;19926;-76
2022/06/23 03:45:15;;;;;;;;;;;17.20;99.90;;;;;;5090359;28;19909;-76
2022/06/23 03:47:40;;;;;;;;;;;17.20;99.90;;;;;;5092954;28;19912;-77
2022/06/23 03:50:18;;;;;;;;;;;17.10;99.90;;;;;;5091360;28;20038;-76
2022/06/23 03:52:45;;;;;;;;;;;17.10;99.90;;;;;;5092477;28;19915;-76
2022/06/23 03:55:21;;;;;;;;;;;17.00;99.90;;;;;;5092237;28;19953;-76
2022/06/23 03:57:53;;;;;;;;;;;17.00;99.90;;;;;;5095842;28;20353;-75
2022/06/23 04:00:22;;;;;;;;;;;17.00;99.90;;;;;;5113013;28;19919;-76
2022/06/23 04:03:08;;;;;;;;;;;16.90;99.90;;;;;;5112006;28;20424;-75
2022/06/23 04:05:52;;;;;;;;;;;16.80;99.90;;;;;;5107563;28;20367;-76
2022/06/23 04:08:18;;;;;;;;;;;16.80;99.90;;;;;;5096117;28;20307;-76
2022/06/23 04:10:44;;;;;;;;;;;16.80;99.90;;;;;;5094764;28;19915;-76
2022/06/23 04:13:22;;;;;;;;;;;16.80;99.90;;;;;;5095539;28;19915;-76
2022/06/23 04:15:49;;;;;;;;;;;16.80;99.90;;;;;;5095744;28;19916;-75
2022/06/23 04:18:27;;;;;;;;;;;16.80;99.90;;;;;;5096195;28;19908;-76
2022/06/23 04:20:54;;;;;;;;;;;16.80;99.90;;;;;;5095010;28;19912;-76
2022/06/23 04:23:32;;;;;;;;;;;16.80;99.90;;;;;;5095838;28;19919;-76
2022/06/23 04:26:04;;;;;;;;;;;16.70;99.90;;;;;;5095182;28;19908;-76
2022/06/23 04:28:50;;;;;;;;;;;16.70;99.90;;;;;;5095659;28;20284;-76
2022/06/23 04:31:17;;;;;;;;;;;16.70;99.90;;;;;;5095645;28;20010;-76
2022/06/23 04:33:44;;;;;;;;;;;16.70;99.90;;;;;;5092003;28;19973;-76
2022/06/23 04:36:24;;;;;;;;;;;16.70;99.90;;;;;;5091469;28;20002;-76
2022/06/23 04:38:52;;;;;;;;;;;16.70;99.90;;;;;;5094788;28;19920;-75
2022/06/23 04:41:21;;;;;;;;;;;16.70;99.90;;;;;;5095700;28;19912;-76
2022/06/23 04:43:49;;;;;;;;;;;16.60;99.90;;;;;;5095257;28;20285;-76
2022/06/23 04:46:34;;;;;;;;;;;16.60;99.90;;;;;;5095585;28;19930;-76
2022/06/23 04:49:02;;;;;;;;;;;16.60;99.90;;;;;;5094556;28;19908;-76
2022/06/23 04:51:30;;;;;;;;;;;16.60;99.90;;;;;;5095660;28;19943;-76
2022/06/23 04:53:58;;;;;;;;;;;16.60;99.90;;;;;;5094801;28;19912;-76
2022/06/23 04:56:29;;;;;;;;;;;16.60;99.90;;;;;;5095405;28;19915;-76
2022/06/23 04:59:04;;;;;;;;;;;16.60;99.90;;;;;;5094690;28;19908;-76
2022/06/23 05:01:40;;;;;;;;;;;16.60;99.90;;;;;;5095311;28;20365;-76
2022/06/23 05:04:12;;;;;;;;;;;16.50;99.90;;;;;;5094901;28;19919;-76
2022/06/23 05:06:39;;;;;;;;;;;16.50;99.90;;;;;;5110096;28;20036;-76
2022/06/23 05:09:18;;;;;;;;;;;16.50;99.90;;;;;;5114367;28;19919;-76
2022/06/23 05:11:44;;;;;;;;;;;16.50;99.90;;;;;;5115602;28;20045;-76
2022/06/23 05:14:19;;;;;;;;;;;16.50;99.90;;;;;;5114794;28;19994;-76
2022/06/23 05:16:47;;;;;;;;;;;16.60;99.90;;;;;;5115752;28;19915;-76
2022/06/23 05:19:19;;;;;;;;;;;16.50;99.90;;;;;;5115051;28;19908;-76
2022/06/23 05:21:46;;;;;;;;;;;16.60;99.90;;;;;;5115045;28;19911;-76
2022/06/23 05:24:17;;;;;;;;;;;16.60;99.90;;;;;;5114343;28;19959;-76
2022/06/23 05:26:43;;;;;;;;;;;16.50;99.90;;;;;;5115075;28;19994;-76
2022/06/23 05:29:27;;;;;;;;;;;16.60;99.90;;;;;;5113074;28;20056;-76
2022/06/23 05:31:55;;;;;;;;;;;16.50;99.90;;;;;;5114279;28;19907;-76
2022/06/23 05:34:25;;;;;;;;;;;16.50;99.90;;;;;;5114653;28;20292;-77
2022/06/23 05:37:03;;;;;;;;;;;16.50;99.90;;;;;;5114364;28;19923;-76
2022/06/23 05:39:34;;;;;;;;;;;16.50;99.90;;;;;;5115079;28;19915;-76
2022/06/23 05:42:06;;;;;;;;;;;16.50;99.90;;;;;;5113061;28;20010;-76
2022/06/23 05:44:33;;;;;;;;;;;16.50;99.90;;;;;;5114669;28;19919;-77
2022/06/23 05:47:00;;;;;;;;;;;16.50;99.90;;;;;;5114296;28;19908;-77
2022/06/23 05:49:39;;;;;;;;;;;16.60;99.90;;;;;;5114536;28;19907;-76
2022/06/23 05:52:05;;;;;;;;;;;16.60;99.90;;;;;;5112228;28;19943;-76
2022/06/23 05:54:31;;;;;;;;;;;16.60;99.90;;;;;;5114541;28;19918;-76
2022/06/23 05:57:01;;;;;;;;;;;16.60;99.90;;;;;;5113873;28;19998;-77
2022/06/23 05:59:35;;;;;;;;;;;16.60;99.90;;;;;;5114426;28;19969;-76
2022/06/23 06:02:09;;;;;;;;;;;16.60;99.90;;;;;;5113863;28;19915;-77
2022/06/23 06:04:43;;;;;;;;;;;16.60;99.90;;;;;;5114192;28;20321;-76
2022/06/23 06:07:11;;;;;;;;;;;16.60;99.90;;;;;;5113945;28;19919;-76
2022/06/23 06:09:39;;;;;;;;;;;16.70;99.90;;;;;;5114051;28;19907;-76
2022/06/23 06:12:14;;;;;;;;;;;16.70;99.90;;;;;;5113611;28;19908;-76
2022/06/23 06:14:43;;;;;;;;;;;16.70;99.90;;;;;;5114226;28;19908;-77
2022/06/23 06:17:12;;;;;;;;;;;16.70;99.90;;;;;;5113414;28;19908;-77
2022/06/23 06:19:37;;;;;;;;;;;16.70;99.90;;;;;;5114113;28;19908;-77
2022/06/23 06:22:17;;;;;;;;;;;16.70;99.90;;;;;;5113225;28;19923;-77
2022/06/23 06:24:45;;;;;;;;;;;16.70;99.90;;;;;;5113992;28;20314;-76
2022/06/23 06:27:11;;;;;;;;;;;16.80;99.90;;;;;;5111428;28;19912;-76
2022/06/23 06:29:39;;;;;;;;;;;16.80;99.90;;;;;;5113238;28;19999;-76
2022/06/23 06:32:23;;;;;;;;;;;16.90;99.90;;;;;;5113183;28;20357;-78
2022/06/23 06:34:54;;;;;;;;;;;16.80;99.90;;;;;;5113875;28;19908;-76
2022/06/23 06:37:21;;;;;;;;;;;16.80;99.90;;;;;;5113430;28;20011;-76
2022/06/23 06:39:53;;;;;;;;;;;16.90;99.90;;;;;;5113753;28;19908;-77
2022/06/23 06:42:22;;;;;;;;;;;16.80;99.90;;;;;;5113475;28;19912;-77
2022/06/23 06:44:49;;;;;;;;;;;16.80;99.90;;;;;;5113240;28;20336;-78
2022/06/23 06:47:17;;;;;;;;;;;16.70;99.90;;;;;;5113096;28;20002;-77
2022/06/23 06:49:43;;;;;;;;;;;16.60;99.90;;;;;;5113384;28;19907;-77
2022/06/23 06:52:09;;;;;;;;;;;16.60;99.90;;;;;;5112779;28;19986;-76
2022/06/23 06:55:10;;;;;;;;;;;16.70;99.90;;;;;;5113618;28;20349;-76
2022/06/23 06:57:40;;;;;;;;;;;16.70;99.90;;;;;;5050391;28;19909;-78
2022/06/23 07:00:11;;;;;;;;;;;16.70;99.90;;;;;;5101215;28;19915;-78
2022/06/23 07:02:39;;;;;;;;;;;16.80;99.90;;;;;;5113475;28;20363;-78
2022/06/23 07:05:17;;;;;;;;;;;16.90;99.90;;;;;;5112744;28;19912;-78
2022/06/23 07:07:44;;;;;;;;;;;16.90;99.90;;;;;;5113297;28;20330;-78
2022/06/23 07:10:18;;;;;;;;;;;17.00;99.90;;;;;;5112891;28;19951;-77
2022/06/23 07:12:48;;;;;;;;;;;16.90;99.90;;;;;;5113152;28;19908;-77
2022/06/23 07:15:13;;;;;;;;;;;16.90;99.90;;;;;;5112602;28;19957;-78
2022/06/23 07:17:44;;;;;;;;;;;17.00;99.90;;;;;;5112976;28;20010;-78
2022/06/23 07:20:09;;;;;;;;;;;17.00;99.90;;;;;;5112199;28;19912;-78
2022/06/23 07:22:41;;;;;;;;;;;17.00;99.90;;;;;;5112657;28;19911;-77
2022/06/23 07:25:11;;;;;;;;;;;17.10;99.90;;;;;;5112200;28;19914;-77
2022/06/23 07:27:52;;;;;;;;;;;17.10;99.90;;;;;;5112687;28;19984;-77
2022/06/23 07:30:20;;;;;;;;;;;17.10;99.90;;;;;;5112594;28;19950;-77
2022/06/23 07:33:07;;;;;;;;;;;17.20;99.90;;;;;;5112758;28;20345;-77
2022/06/23 07:35:33;;;;;;;;;;;17.20;99.90;;;;;;5112862;28;19907;-78
2022/06/23 07:38:04;;;;;;;;;;;17.20;99.90;;;;;;5112854;28;19943;-77
2022/06/23 07:40:33;;;;;;;;;;;17.20;99.90;;;;;;5116087;28;19923;-78
2022/06/23 07:43:25;;;;;;;;;;;17.20;99.90;;;;;;5115261;28;20010;-78
2022/06/23 07:45:53;;;;;;;;;;;17.10;99.90;;;;;;5113741;28;19912;-78
2022/06/23 07:48:19;;;;;;;;;;;17.10;99.90;;;;;;5116753;28;19908;-78
2022/06/23 07:50:45;;;;;;;;;;;17.10;99.90;;;;;;5115209;28;19915;-77
2022/06/23 07:53:17;;;;;;;;;;;17.10;99.90;;;;;;5114950;28;20285;-78
2022/06/23 07:55:43;;;;;;;;;;;17.10;99.90;;;;;;5116924;28;19908;-78
2022/06/23 07:58:09;;;;;;;;;;;17.10;99.90;;;;;;5116238;28;19908;-77
2022/06/23 08:00:37;;;;;;;;;;;17.20;99.90;;;;;;5116763;28;19912;-78
2022/06/23 08:03:05;;;;;;;;;;;17.20;99.90;;;;;;5115947;28;19919;-78
2022/06/23 08:05:34;;;;;;;;;;;17.30;99.90;;;;;;5116239;28;20430;-78
2022/06/23 08:08:01;;;;;;;;;;;17.30;99.90;;;;;;5115832;28;20417;-78
2022/06/23 08:10:29;;;;;;;;;;;17.20;99.90;;;;;;5116639;28;19961;-78
2022/06/23 08:12:57;;;;;;;;;;;17.30;99.90;;;;;;5116210;28;20418;-76
2022/06/23 08:18:33;;;;;;;;;;;17.60;99.90;;;;;;5115537;28;20545;-78
2022/06/23 08:21:11;;;;;;;;;;;17.70;99.90;;;;;;5107310;28;20349;-78
2022/06/23 08:23:38;;;;;;;;;;;17.70;99.90;;;;;;5116287;28;19919;-78
2022/06/23 08:26:07;;;;;;;;;;;17.80;99.90;;;;;;5115742;28;19931;-78
2022/06/23 08:28:32;;;;;;;;;;;17.80;99.90;;;;;;5116020;28;19912;-78
2022/06/23 08:30:58;;;;;;;;;;;17.90;99.90;;;;;;5115675;28;19908;-79
2022/06/23 08:33:25;;;;;;;;;;;17.90;99.90;;;;;;5115718;28;20310;-78
2022/06/23 08:35:51;;;;;;;;;;;17.90;99.90;;;;;;5101557;28;19911;-78
2022/06/23 08:38:20;;;;;;;;;;;18.00;99.90;;;;;;5091295;28;20027;-78
2022/06/23 08:40:58;;;;;;;;;;;18.00;99.90;;;;;;5093937;28;19912;-79
2022/06/23 08:43:48;;;;;;;;;;;18.00;99.90;;;;;;5094173;28;19918;-78
2022/06/23 08:46:32;;;;;;;;;;;18.10;99.90;;;;;;5093876;28;19947;-77
2022/06/23 08:49:03;;;;;;;;;;;18.10;99.90;;;;;;5093416;28;19931;-77
2022/06/23 08:51:28;;;;;;;;;;;18.30;99.90;;;;;;5094767;28;19958;-78
2022/06/23 08:53:57;;;;;;;;;;;18.40;99.90;;;;;;5094066;28;19956;-78
2022/06/23 08:56:39;;;;;;;;;;;18.50;99.90;;;;;;5094082;28;19999;-78
2022/06/23 08:59:20;;;;;;;;;;;18.50;99.90;;;;;;5093280;28;19915;-78
2022/06/23 09:02:00;;;;;;;;;;;18.70;99.90;;;;;;5094079;28;19923;-78
2022/06/23 09:04:32;;;;;;;;;;;18.90;99.90;;;;;;5092882;28;19912;-78
2022/06/23 09:07:02;;;;;;;;;;;19.00;99.90;;;;;;5093577;28;19916;-77
2022/06/23 09:09:50;;;;;;;;;;;19.20;99.90;;;;;;5093710;28;20388;-78
2022/06/23 09:12:25;;;;;;;;;;;19.30;99.90;;;;;;5093362;28;20219;-78
2022/06/23 09:14:53;;;;;;;;;;;19.40;99.90;;;;;;5093685;28;20413;-77
2022/06/23 09:17:38;;;;;;;;;;;19.60;99.90;;;;;;5092095;28;19915;-79
2022/06/23 09:20:22;;;;;;;;;;;19.80;99.90;;;;;;5092978;28;20008;-78
2022/06/23 09:22:47;;;;;;;;;;;19.90;99.90;;;;;;5093789;28;19978;-78
2022/06/23 09:25:33;;;;;;;;;;;19.90;99.90;;;;;;5093262;28;19908;-78
2022/06/23 09:28:17;;;;;;;;;;;20.10;99.90;;;;;;5085198;28;19908;-77
2022/06/23 09:31:06;;;;;;;;;;;20.20;99.90;;;;;;5093625;28;19915;-78
2022/06/23 09:33:50;;;;;;;;;;;20.20;99.90;;;;;;5087349;28;20364;-78
2022/06/23 09:39:16;;;;;;;;;;;20.40;99.90;;;;;;5088744;28;19912;-76
2022/06/23 09:41:42;;;;;;;;;;;20.40;99.90;;;;;;5089123;28;20013;-76
2022/06/23 09:44:14;;;;;;;;;;;20.40;99.90;;;;;;5089452;28;20368;-76
2022/06/23 09:46:53;;;;;;;;;;;20.40;99.90;;;;;;5088452;28;19916;-76
2022/06/23 09:49:18;;;;;;;;;;;20.50;99.90;;;;;;5089536;28;19954;-76
2022/06/23 09:51:53;;;;;;;;;;;20.60;99.90;;;;;;5088794;28;20349;-77
2022/06/23 09:54:28;;;;;;;;;;;20.70;99.90;;;;;;5088769;28;19931;-76
2022/06/23 09:57:14;;;;;;;;;;;20.60;99.90;;;;;;5089776;28;19912;-76
2022/06/23 10:00:01;;;;;;;;;;;20.70;99.90;;;;;;5089339;28;19908;-76
2022/06/23 10:02:29;;;;;;;;;;;20.70;99.90;;;;;;5089981;28;19913;-76
2022/06/23 10:05:14;;;;;;;;;;;20.90;99.90;;;;;;5091240;28;19912;-76
2022/06/23 10:07:45;;;;;;;;;;;21.00;99.90;;;;;;5109670;28;20041;-78
2022/06/23 10:10:16;;;;;;;;;;;21.10;99.90;;;;;;5100005;28;20007;-78
2022/06/23 10:13:11;;;;;;;;;;;21.20;99.90;;;;;;5109912;28;19915;-78
2022/06/23 10:15:47;;;;;;;;;;;21.20;99.90;;;;;;5089643;28;19959;-78
2022/06/23 10:18:19;;;;;;;;;;;21.20;99.90;;;;;;5103780;28;19943;-79
2022/06/23 10:20:50;;;;;;;;;;;21.10;99.90;;;;;;5089333;28;19915;-78
2022/06/23 10:23:22;;;;;;;;;;;21.00;99.90;;;;;;5088877;28;19939;-78
2022/06/23 10:25:50;;;;;;;;;;;20.90;99.90;;;;;;5088783;28;19957;-78
2022/06/23 10:28:18;;;;;;;;;;;21.00;99.90;;;;;;5088812;28;19940;-79
2022/06/23 10:30:59;;;;;;;;;;;20.90;99.90;;;;;;5087608;28;19908;-78
2022/06/23 10:33:30;;;;;;;;;;;20.90;99.90;;;;;;5089246;28;19956;-78
2022/06/23 10:36:14;;;;;;;;;;;20.90;99.90;;;;;;5089366;28;19912;-78
2022/06/23 10:38:55;;;;;;;;;;;20.70;99.90;;;;;;5105450;28;19927;-78
2022/06/23 10:41:30;;;;;;;;;;;20.70;99.90;;;;;;5108887;28;20234;-78
2022/06/23 10:44:07;;;;;;;;;;;20.60;99.90;;;;;;5109180;28;19931;-78
2022/06/23 10:46:40;;;;;;;;;;;20.50;99.90;;;;;;5109307;28;19908;-77
2022/06/23 10:49:24;;;;;;;;;;;20.70;99.90;;;;;;5084380;28;20272;-78
2022/06/23 10:51:55;;;;;;;;;;;20.80;99.90;;;;;;5095403;28;19950;-78
2022/06/23 10:54:21;;;;;;;;;;;20.80;99.90;;;;;;5094755;28;20417;-78
2022/06/23 10:56:46;;;;;;;;;;;20.90;99.90;;;;;;5095309;28;20010;-77
2022/06/23 10:59:25;;;;;;;;;;;20.90;99.90;;;;;;5094411;28;19915;-77
2022/06/23 11:02:05;;;;;;;;;;;20.90;99.90;;;;;;5077755;28;19930;-78
2022/06/23 11:04:49;;;;;;;;;;;21.00;99.90;;;;;;5077356;28;20358;-77
2022/06/23 11:07:36;;;;;;;;;;;21.10;99.90;;;;;;5094725;28;20017;-78
2022/06/23 11:10:17;;;;;;;;;;;21.20;99.90;;;;;;5094329;28;20276;-77
2022/06/23 11:13:02;;;;;;;;;;;21.20;99.90;;;;;;5095331;28;19916;-78
2022/06/23 11:15:31;;;;;;;;;;;21.20;99.90;;;;;;5095514;28;19908;-77
2022/06/23 11:17:56;;;;;;;;;;;21.20;99.90;;;;;;5094931;28;19920;-78
2022/06/23 11:20:22;;;;;;;;;;;21.30;99.90;;;;;;5094439;28;20403;-77
2022/06/23 11:23:00;;;;;;;;;;;21.50;99.90;;;;;;5095142;28;19966;-77
2022/06/23 11:25:34;;;;;;;;;;;21.80;99.90;;;;;;5094845;28;19912;-78
2022/06/23 11:28:18;;;;;;;;;;;21.90;99.90;;;;;;5094424;28;19947;-77
2022/06/23 11:30:59;;;;;;;;;;;22.00;99.90;;;;;;5094362;28;20005;-78
2022/06/23 11:33:40;;;;;;;;;;;21.90;99.90;;;;;;5094663;28;19908;-77
2022/06/23 11:36:15;;;;;;;;;;;21.70;99.90;;;;;;5094187;28;19914;-77
2022/06/23 11:38:42;;;;;;;;;;;21.50;99.90;;;;;;5094425;28;19927;-78
2022/06/23 11:41:07;;;;;;;;;;;21.20;99.90;;;;;;5093606;28;19908;-77
2022/06/23 11:43:45;;;;;;;;;;;21.20;99.90;;;;;;5094253;28;19977;-78
2022/06/23 11:46:13;;;;;;;;;;;21.30;99.90;;;;;;5093914;28;19933;-77
2022/06/23 11:48:39;;;;;;;;;;;21.60;99.90;;;;;;5093686;28;19908;-78
2022/06/23 11:51:10;;;;;;;;;;;21.80;99.90;;;;;;5093347;28;20372;-77
2022/06/23 11:53:36;;;;;;;;;;;21.80;99.90;;;;;;5094475;28;19908;-78
2022/06/23 11:56:05;;;;;;;;;;;21.90;99.90;;;;;;5094002;28;20266;-77
2022/06/23 11:58:32;;;;;;;;;;;21.80;99.90;;;;;;5094099;28;19912;-78
2022/06/23 12:01:15;;;;;;;;;;;21.80;99.90;;;;;;5093040;28;19912;-78
2022/06/23 12:03:57;;;;;;;;;;;21.70;99.90;;;;;;5094337;28;20073;-78
2022/06/23 12:06:31;;;;;;;;;;;21.60;99.90;;;;;;5075592;28;20297;-78
2022/06/23 12:08:57;;;;;;;;;;;21.60;99.90;;;;;;5093682;28;20321;-78
2022/06/23 12:11:23;;;;;;;;;;;21.60;99.90;;;;;;5093558;28;20080;-77
2022/06/23 12:13:49;;;;;;;;;;;21.70;99.90;;;;;;5093954;28;19908;-78
2022/06/23 12:16:14;;;;;;;;;;;21.80;99.90;;;;;;5075320;28;20049;-78
2022/06/23 12:18:52;;;;;;;;;;;21.80;99.90;;;;;;5093694;28;19919;-78
2022/06/23 12:21:21;;;;;;;;;;;21.80;99.90;;;;;;5093648;28;20265;-77
2022/06/23 12:24:00;;;;;;;;;;;21.90;99.90;;;;;;5093633;28;19912;-77
2022/06/23 12:26:33;;;;;;;;;;;22.00;99.90;;;;;;5093502;28;19998;-77
2022/06/23 12:29:05;;;;;;;;;;;22.10;99.90;;;;;;5093347;28;20230;-77
2022/06/23 12:31:40;;;;;;;;;;;22.10;99.90;;;;;;5093304;28;20365;-77
2022/06/23 12:34:09;;;;;;;;;;;22.00;99.90;;;;;;5092655;28;19992;-77
2022/06/23 12:36:43;;;;;;;;;;;21.80;99.90;;;;;;5093609;28;19908;-77
2022/06/23 12:39:13;;;;;;;;;;;21.70;99.90;;;;;;5092617;28;19947;-77
2022/06/23 12:41:43;;;;;;;;;;;21.50;99.90;;;;;;5091686;28;19957;-77
2022/06/23 12:44:27;;;;;;;;;;;21.50;99.90;;;;;;5109553;28;20388;-77
2022/06/23 12:46:59;;;;;;;;;;;21.50;99.90;;;;;;5106692;28;20346;-77
2022/06/23 12:49:32;;;;;;;;;;;21.30;99.90;;;;;;5092781;28;19908;-76
2022/06/23 12:52:21;;;;;;;;;;;21.30;99.90;;;;;;5092931;28;19908;-77
2022/06/23 12:54:59;;;;;;;;;;;21.10;99.90;;;;;;5097903;28;19916;-77
2022/06/23 12:57:44;;;;;;;;;;;21.00;99.90;;;;;;5092579;28;19916;-77
2022/06/23 13:00:10;;;;;;;;;;;21.00;99.90;;;;;;5092103;28;19908;-77
2022/06/23 13:02:48;;;;;;;;;;;20.90;99.90;;;;;;5092811;28;19908;-78
2022/06/23 13:05:14;;;;;;;;;;;20.90;99.90;;;;;;5092565;28;19908;-77
2022/06/23 13:07:39;;;;;;;;;;;20.90;99.90;;;;;;5093057;28;19916;-78
2022/06/23 13:10:13;;;;;;;;;;;21.00;99.90;;;;;;5092763;28;19912;-78
2022/06/23 13:12:57;;;;;;;;;;;20.90;99.90;;;;;;5074446;28;19916;-78
2022/06/23 13:15:49;;;;;;;;;;;20.90;99.90;;;;;;5092310;28;20686;-78
2022/06/23 13:18:15;;;;;;;;;;;20.90;99.90;;;;;;5088170;28;19924;-78
2022/06/23 13:20:45;;;;;;;;;;;20.90;99.90;;;;;;5092603;28;19908;-78
2022/06/23 13:23:13;;;;;;;;;;;20.90;99.90;;;;;;5092107;28;19916;-78
2022/06/23 13:25:44;;;;;;;;;;;20.90;99.90;;;;;;5092748;28;20379;-79
2022/06/23 13:28:18;;;;;;;;;;;21.10;99.90;;;;;;5092300;28;19908;-78
2022/06/23 13:30:49;;;;;;;;;;;21.30;99.90;;;;;;5092519;28;19908;-79
2022/06/23 13:33:34;;;;;;;;;;;21.30;99.90;;;;;;5089498;28;19908;-76
2022/06/23 13:36:05;;;;;;;;;;;21.20;99.90;;;;;;5091969;28;20369;-77
2022/06/23 13:38:40;;;;;;;;;;;21.30;99.90;;;;;;5108613;28;19971;-78
2022/06/23 13:41:17;;;;;;;;;;;21.20;99.90;;;;;;5091555;28;19998;-77
2022/06/23 13:43:50;;;;;;;;;;;21.10;99.90;;;;;;5073867;28;19915;-77
2022/06/23 13:46:20;;;;;;;;;;;20.90;99.90;;;;;;5092165;28;19908;-77
2022/06/23 13:48:48;;;;;;;;;;;20.90;99.90;;;;;;5092304;28;19987;-78
2022/06/23 13:51:34;;;;;;;;;;;20.90;99.90;;;;;;5073440;28;19962;-77
2022/06/23 13:54:05;;;;;;;;;;;20.90;99.90;;;;;;5091589;28;20346;-77
2022/06/23 13:56:37;;;;;;;;;;;21.10;99.90;;;;;;5091777;28;19908;-78
2022/06/23 13:59:11;;;;;;;;;;;21.20;99.90;;;;;;5092277;28;19912;-78
2022/06/23 14:01:45;;;;;;;;;;;21.30;99.90;;;;;;5092377;28;19924;-78
2022/06/23 14:04:29;;;;;;;;;;;21.30;99.90;;;;;;5091251;28;19914;-77
2022/06/23 14:07:01;;;;;;;;;;;21.30;99.90;;;;;;5092123;28;19999;-79
2022/06/23 14:09:48;;;;;;;;;;;21.30;99.90;;;;;;5091787;28;20255;-77
2022/06/23 14:12:26;;;;;;;;;;;21.50;99.90;;;;;;5091697;28;19908;-77
2022/06/23 14:14:59;;;;;;;;;;;21.60;99.90;;;;;;5091928;28;19995;-78
2022/06/23 14:17:29;;;;;;;;;;;21.50;99.90;;;;;;5091810;28;20081;-79
2022/06/23 14:20:01;;;;;;;;;;;21.50;99.90;;;;;;5091881;28;20007;-78
2022/06/23 14:22:41;;;;;;;;;;;21.50;99.90;;;;;;5091392;28;19908;-79
2022/06/23 14:25:14;;;;;;;;;;;21.50;99.90;;;;;;5093814;28;19912;-76
2022/06/23 14:27:47;;;;;;;;;;;21.50;99.90;;;;;;5096032;28;19908;-78
2022/06/23 14:30:26;;;;;;;;;;;21.50;99.90;;;;;;5095440;28;19915;-78
2022/06/23 14:33:01;;;;;;;;;;;21.50;99.90;;;;;;5095373;28;19908;-78
2022/06/23 14:35:37;;;;;;;;;;;21.60;99.90;;;;;;5095242;28;19918;-79
2022/06/23 14:38:12;;;;;;;;;;;21.50;99.90;;;;;;5095321;28;20055;-78
2022/06/23 14:40:56;;;;;;;;;;;21.40;99.90;;;;;;5095881;28;19908;-78
2022/06/23 14:43:29;;;;;;;;;;;21.50;99.90;;;;;;5095034;28;20357;-80
2022/06/23 14:46:13;;;;;;;;;;;21.70;99.90;;;;;;5077158;28;19962;-79
2022/06/23 14:48:42;;;;;;;;;;;22.00;99.90;;;;;;5077488;28;19908;-78
2022/06/23 14:51:16;;;;;;;;;;;22.30;99.90;;;;;;5095150;28;20416;-77
2022/06/23 14:53:48;;;;;;;;;;;22.40;99.90;;;;;;5095637;28;19908;-78
2022/06/23 14:56:20;;;;;;;;;;;22.50;99.90;;;;;;5095167;28;20305;-77
2022/06/23 14:58:52;;;;;;;;;;;22.50;99.90;;;;;;5095245;28;20001;-78